Time;durP1;ratioP1;P1;durP2;ratioP2;P2;SDS_P1;SDS_P2;PMS_P1;PMS_P2;Temp;Humidity;BMP_temperature;BMP_pressure;BME280_temperature;BME280_humidity;BME280_pressure;Samples;Min_cycle;Max_cycle;Signal;HPM_P1;HPM_P2
2022/01/05 00:05:09;;;;;;;5.97;1.10;;;3.50;99.90;;;;;;10518798;28;20309;-80
2022/01/05 00:10:31;;;;;;;5.47;1.20;;;3.40;99.90;;;;;;10504464;28;20203;-80
2022/01/05 00:15:53;;;;;;;5.17;1.37;;;3.40;99.90;;;;;;10518535;28;20274;-80
2022/01/05 00:21:21;;;;;;;3.37;1.10;;;3.40;99.90;;;;;;10518293;28;20253;-78
2022/01/05 00:26:42;;;;;;;2.70;1.00;;;3.40;99.90;;;;;;10504016;28;20188;-80
2022/01/05 00:32:05;;;;;;;3.23;1.43;;;3.40;99.90;;;;;;10518167;28;20199;-80
2022/01/05 00:37:27;;;;;;;1.03;0.87;;;3.40;99.90;;;;;;10518072;28;20228;-79
2022/01/05 00:42:49;;;;;;;3.63;1.17;;;3.30;99.90;;;;;;10518303;28;20190;-79
2022/01/05 00:48:11;;;;;;;4.83;1.67;;;3.30;99.90;;;;;;10517797;28;20621;-78
2022/01/05 00:53:34;;;;;;;6.83;1.30;;;3.20;99.90;;;;;;10517665;28;20222;-78
2022/01/05 00:58:56;;;;;;;6.97;1.83;;;3.10;99.90;;;;;;10522991;28;20402;-78
2022/01/05 01:04:18;;;;;;;5.80;1.53;;;3.10;99.90;;;;;;10525152;28;20199;-78
2022/01/05 01:09:40;;;;;;;5.00;1.00;;;3.20;99.90;;;;;;10524871;28;20420;-78
2022/01/05 01:15:05;;;;;;;6.07;1.60;;;3.20;99.90;;;;;;10524804;28;20195;-78
2022/01/05 01:20:27;;;;;;;4.97;1.57;;;3.30;99.90;;;;;;10524154;28;20233;-78
2022/01/05 01:31:49;;;;;;;2.57;1.03;;;3.20;99.90;;;;;;10349420;23;20239;-77
2022/01/05 01:37:11;;;;;;;6.07;1.37;;;3.10;99.90;;;;;;10083764;29;20241;-80
2022/01/05 01:42:34;;;;;;;5.17;1.43;;;3.10;99.90;;;;;;10084748;29;20216;-77
2022/01/05 01:47:56;;;;;;;7.17;1.30;;;3.10;99.90;;;;;;10083399;29;20204;-77
2022/01/05 01:53:18;;;;;;;7.23;1.47;;;3.10;99.90;;;;;;10084366;29;20397;-79
2022/01/05 01:58:40;;;;;;;7.50;1.77;;;3.20;99.90;;;;;;10082875;29;20545;-79
2022/01/05 02:04:02;;;;;;;4.73;1.30;;;3.10;99.90;;;;;;10098447;29;20519;-79
2022/01/05 02:09:24;;;;;;;7.47;1.70;;;3.10;99.90;;;;;;10069081;29;20213;-80
2022/01/05 02:14:47;;;;;;;6.10;1.33;;;3.10;99.90;;;;;;10095507;29;20243;-79
2022/01/05 02:20:19;;;;;;;4.77;1.43;;;3.00;99.90;;;;;;10095344;29;20227;-79
2022/01/05 02:25:41;;;;;;;12.50;1.70;;;3.00;99.90;;;;;;10083247;29;20220;-79
2022/01/05 02:31:04;;;;;;;7.03;1.20;;;3.00;99.90;;;;;;10082074;29;20436;-79
2022/01/05 02:36:26;;;;;;;4.90;1.30;;;3.00;99.90;;;;;;10068840;29;20461;-80
2022/01/05 02:41:49;;;;;;;3.97;1.27;;;3.00;99.90;;;;;;10081633;29;20281;-78
2022/01/05 02:47:10;;;;;;;8.30;1.40;;;3.00;99.90;;;;;;10055725;29;20199;-78
2022/01/05 02:52:32;;;;;;;3.50;1.37;;;3.00;99.90;;;;;;10080870;29;20254;-79
2022/01/05 02:57:54;;;;;;;4.37;1.40;;;3.00;99.90;;;;;;10081230;29;20226;-79
2022/01/05 03:03:16;;;;;;;3.43;1.23;;;2.90;99.90;;;;;;10081081;29;20198;-79
2022/01/05 03:08:38;;;;;;;7.53;1.20;;;2.90;99.90;;;;;;10081082;29;20202;-79
2022/01/05 03:14:00;;;;;;;6.90;1.70;;;2.80;99.90;;;;;;10093484;29;20395;-79
2022/01/05 03:19:21;;;;;;;6.07;1.43;;;2.70;99.90;;;;;;10079937;29;20275;-78
2022/01/05 03:24:43;;;;;;;5.27;1.47;;;2.70;99.90;;;;;;10041793;29;20203;-79
2022/01/05 03:30:06;;;;;;;6.17;1.70;;;2.70;99.90;;;;;;10056942;29;20439;-78
2022/01/05 03:35:32;;;;;;;5.33;1.70;;;2.70;99.90;;;;;;10079908;29;20388;-79
2022/01/05 03:40:55;;;;;;;7.67;2.33;;;2.60;99.90;;;;;;10080615;29;20504;-79
2022/01/05 03:46:17;;;;;;;3.03;1.40;;;2.60;99.90;;;;;;10079718;29;20203;-79
2022/01/05 03:51:38;;;;;;;3.53;1.10;;;2.60;99.90;;;;;;10066177;29;20199;-79
2022/01/05 03:57:00;;;;;;;7.33;2.07;;;2.50;99.90;;;;;;10079271;29;20253;-79
2022/01/05 04:02:22;;;;;;;2.57;1.10;;;2.60;99.90;;;;;;10079260;29;20202;-79
2022/01/05 04:07:44;;;;;;;4.73;1.23;;;2.50;99.90;;;;;;10078814;29;20202;-79
2022/01/05 04:13:06;;;;;;;5.83;1.50;;;2.60;99.90;;;;;;10079111;29;20382;-76
2022/01/05 04:18:28;;;;;;;5.70;1.40;;;2.60;99.90;;;;;;10065924;29;20306;-79
2022/01/05 04:23:50;;;;;;;3.93;1.30;;;2.60;99.90;;;;;;10078586;29;20274;-79
2022/01/05 04:29:13;;;;;;;5.37;1.80;;;2.50;99.90;;;;;;10086956;29;20237;-80
2022/01/05 04:34:35;;;;;;;8.50;2.33;;;2.50;99.90;;;;;;10123984;29;20492;-80
2022/01/05 04:40:18;;;;;;;8.33;3.00;;;2.40;99.90;;;;;;10125349;29;20227;-79
2022/01/05 04:45:40;;;;;;;10.10;3.07;;;2.40;99.90;;;;;;10111247;29;20202;-80
2022/01/05 04:51:03;;;;;;;5.63;3.00;;;2.40;99.90;;;;;;10112405;29;20203;-79
2022/01/05 04:56:25;;;;;;;6.23;3.20;;;2.40;99.90;;;;;;10085241;29;20311;-79
2022/01/05 05:01:47;;;;;;;10.80;3.43;;;2.50;99.90;;;;;;10086477;29;20202;-79
2022/01/05 05:07:10;;;;;;;4.87;3.07;;;2.50;99.90;;;;;;10098009;29;20250;-79
2022/01/05 05:12:32;;;;;;;8.90;4.17;;;2.40;99.90;;;;;;10084791;29;20255;-79
2022/01/05 05:17:54;;;;;;;9.33;4.40;;;2.40;99.90;;;;;;10084721;29;20244;-80
2022/01/05 05:23:17;;;;;;;11.47;4.70;;;2.40;99.90;;;;;;10084068;29;20258;-79
2022/01/05 05:28:39;;;;;;;11.67;5.43;;;2.40;99.90;;;;;;10085142;29;20419;-79
2022/01/05 05:34:01;;;;;;;16.67;6.13;;;2.50;99.90;;;;;;10099167;29;20197;-79
2022/01/05 05:39:23;;;;;;;17.27;7.20;;;2.50;99.90;;;;;;10083981;29;20257;-80
2022/01/05 05:44:45;;;;;;;15.67;7.17;;;2.50;99.90;;;;;;10083727;29;20206;-79
2022/01/05 05:50:08;;;;;;;12.63;6.80;;;2.40;99.90;;;;;;10083059;29;20392;-81
2022/01/05 05:55:30;;;;;;;10.37;7.03;;;2.60;99.90;;;;;;10057855;29;20402;-80
2022/01/05 06:00:52;;;;;;;17.73;6.90;;;2.50;99.90;;;;;;10083441;29;20237;-79
2022/01/05 06:06:16;;;;;;;16.40;8.10;;;2.50;99.90;;;;;;10082898;29;20203;-80
2022/01/05 06:11:39;;;;;;;15.40;7.63;;;2.50;99.90;;;;;;10069920;29;20213;-79
2022/01/05 06:17:01;;;;;;;18.00;8.63;;;2.40;99.90;;;;;;10083731;29;20283;-79
2022/01/05 06:22:23;;;;;;;20.57;9.13;;;2.40;99.90;;;;;;10083197;29;20205;-78
2022/01/05 06:27:45;;;;;;;10.93;6.97;;;2.40;99.90;;;;;;10082261;29;20433;-79
2022/01/05 06:33:08;;;;;;;13.00;7.37;;;2.40;99.90;;;;;;10043763;29;20434;-78
2022/01/05 06:38:30;;;;;;;18.53;10.03;;;2.40;99.90;;;;;;10030604;29;20525;-77
2022/01/05 06:43:52;;;;;;;19.13;11.03;;;2.50;99.90;;;;;;10043527;29;20196;-77
2022/01/05 06:49:14;;;;;;;32.23;16.77;;;2.50;99.90;;;;;;10044160;29;20424;-79
2022/01/05 06:54:36;;;;;;;23.03;10.80;;;2.40;99.90;;;;;;10081958;29;20205;-79
2022/01/05 06:59:59;;;;;;;15.30;7.33;;;2.20;99.90;;;;;;10068106;29;20233;-78
2022/01/05 07:05:24;;;;;;;16.10;7.80;;;2.30;99.90;;;;;;10080455;29;20208;-79
2022/01/05 07:10:46;;;;;;;22.63;8.90;;;2.30;99.90;;;;;;10081606;29;20202;-79
2022/01/05 07:16:08;;;;;;;18.33;8.13;;;2.40;99.90;;;;;;10067258;29;20208;-78
2022/01/05 07:21:33;;;;;;;20.70;8.13;;;2.40;99.90;;;;;;10081101;29;20369;-79
2022/01/05 07:26:55;;;;;;;19.10;7.17;;;2.30;99.90;;;;;;10079992;29;20214;-79
2022/01/05 07:32:17;;;;;;;19.73;6.93;;;2.30;99.90;;;;;;10047268;29;20231;-77
2022/01/05 07:37:40;;;;;;;22.83;7.07;;;2.30;99.90;;;;;;10041544;29;20281;-77
2022/01/05 07:43:06;;;;;;;18.67;10.67;;;2.40;99.90;;;;;;10054411;29;20207;-79
2022/01/05 07:48:28;;;;;;;13.03;6.03;;;2.40;99.90;;;;;;10041974;29;20397;-77
2022/01/05 07:53:50;;;;;;;25.57;9.67;;;2.40;99.90;;;;;;10066892;29;20275;-77
2022/01/05 07:59:12;;;;;;;14.63;5.87;;;2.40;99.90;;;;;;10071576;29;20280;-77
2022/01/05 08:04:34;;;;;;;21.23;9.70;;;2.50;99.90;;;;;;10041721;29;20200;-76
2022/01/05 08:09:56;;;;;;;27.30;12.67;;;2.50;99.90;;;;;;10037086;29;20236;-77
2022/01/05 08:15:20;;;;;;;15.30;8.03;;;2.40;99.90;;;;;;10027229;29;20247;-77
2022/01/05 08:20:47;;;;;;;20.57;8.57;;;2.50;99.90;;;;;;10036633;29;20227;-77
2022/01/05 08:26:10;;;;;;;13.20;6.57;;;2.60;99.90;;;;;;10036147;29;20497;-77
2022/01/05 08:31:32;;;;;;;32.80;11.17;;;2.60;99.90;;;;;;10035964;29;20287;-78
2022/01/05 08:36:54;;;;;;;25.40;10.07;;;2.50;99.90;;;;;;10035145;29;20228;-77
2022/01/05 08:42:18;;;;;;;18.40;8.17;;;2.50;99.90;;;;;;10047920;29;20218;-80
2022/01/05 08:47:40;;;;;;;11.53;5.90;;;2.60;99.90;;;;;;10035807;29;20200;-80
2022/01/05 08:53:06;;;;;;;11.40;5.30;;;2.70;99.90;;;;;;10034801;29;20269;-78
2022/01/05 08:58:28;;;;;;;19.83;7.00;;;2.70;99.90;;;;;;10034390;29;20543;-76
2022/01/05 09:03:52;;;;;;;19.13;9.67;;;2.80;99.90;;;;;;10035646;29;20739;-77
2022/01/05 09:09:14;;;;;;;22.47;8.13;;;2.80;99.90;;;;;;10034699;29;20210;-77
2022/01/05 09:14:36;;;;;;;23.37;9.60;;;2.80;99.90;;;;;;10035243;29;20292;-78
2022/01/05 09:19:59;;;;;;;17.23;8.87;;;2.80;99.90;;;;;;10039573;29;20235;-79
2022/01/05 09:25:23;;;;;;;29.13;10.17;;;2.90;99.90;;;;;;10041241;29;20201;-83
2022/01/05 09:30:46;;;;;;;55.20;21.87;;;2.90;99.90;;;;;;10040787;29;20243;-80
2022/01/05 09:36:15;;;;;;;59.13;23.90;;;2.80;99.90;;;;;;10041806;29;20196;-80
2022/01/05 09:48:01;;;;;;;19.20;6.47;;;2.80;99.90;;;;;;10041669;29;20260;-79
2022/01/05 09:53:24;;;;;;;13.30;4.70;;;3.00;99.90;;;;;;10009039;29;20295;-78
2022/01/05 09:58:46;;;;;;;12.40;4.90;;;3.20;99.90;;;;;;10003104;29;20251;-79
2022/01/05 10:04:08;;;;;;;22.23;10.43;;;3.10;99.90;;;;;;10028416;29;20206;-80
2022/01/05 10:09:31;;;;;;;17.43;8.50;;;3.10;99.90;;;;;;10038363;29;20207;-78
2022/01/05 10:14:53;;;;;;;31.33;14.37;;;3.00;99.90;;;;;;10002435;29;20218;-77
2022/01/05 10:20:21;;;;;;;11.77;5.50;;;3.00;99.90;;;;;;10017722;29;20351;-78
2022/01/05 10:25:43;;;;;;;17.23;5.90;;;3.10;99.90;;;;;;10038818;29;20207;-80
2022/01/05 10:31:16;;;;;;;13.00;5.23;;;3.20;99.90;;;;;;10024574;29;20267;-81
2022/01/05 10:36:46;;;;;;;17.27;5.67;;;3.30;99.90;;;;;;10038872;29;20203;-77
2022/01/05 10:42:12;;;;;;;17.47;8.87;;;3.50;99.90;;;;;;10037976;29;20207;-79
2022/01/05 10:47:35;;;;;;;10.73;4.83;;;3.50;99.90;;;;;;10038498;29;20387;-78
2022/01/05 10:52:58;;;;;;;20.00;7.23;;;3.60;99.90;;;;;;10038623;29;20214;-78
2022/01/05 10:58:20;;;;;;;10.83;5.00;;;3.70;99.90;;;;;;10050891;29;20245;-78
2022/01/05 11:03:43;;;;;;;21.37;6.73;;;3.80;99.90;;;;;;10037307;29;20214;-78
2022/01/05 11:09:05;;;;;;;17.43;5.90;;;3.90;99.90;;;;;;10036929;29;20235;-79
2022/01/05 11:14:31;;;;;;;15.97;6.03;;;4.10;99.90;;;;;;10037416;29;20219;-78
2022/01/05 11:19:53;;;;;;;11.43;4.13;;;4.10;99.90;;;;;;10057742;29;20309;-79
2022/01/05 11:25:16;;;;;;;13.30;3.47;;;5.00;99.90;;;;;;10064951;29;20261;-77
2022/01/05 11:30:39;;;;;;;14.50;4.30;;;5.40;99.90;;;;;;10028112;29;20257;-77
2022/01/05 11:36:01;;;;;;;14.10;3.70;;;5.50;99.90;;;;;;10037703;29;20210;-78
2022/01/05 11:41:29;;;;;;;11.37;4.83;;;5.90;99.90;;;;;;10036180;29;20241;-79
2022/01/05 11:46:50;;;;;;;19.67;6.20;;;5.80;99.90;;;;;;10037230;29;20254;-81
2022/01/05 11:52:12;;;;;;;24.77;9.03;;;5.40;99.90;;;;;;10048239;29;20202;-76
2022/01/05 11:57:35;;;;;;;19.10;7.67;;;5.20;99.90;;;;;;10036374;29;20278;-81
2022/01/05 12:02:57;;;;;;;12.97;4.40;;;5.10;99.90;;;;;;10034421;29;20223;-77
2022/01/05 12:08:46;;;;;;;11.10;3.83;;;4.90;99.90;;;;;;10036231;29;20281;-77
2022/01/05 12:14:21;;;;;;;14.80;5.20;;;4.60;99.90;;;;;;10010689;29;20317;-77
2022/01/05 12:19:46;;;;;;;16.07;4.30;;;4.30;99.90;;;;;;10032469;29;20254;-78
2022/01/05 12:25:12;;;;;;;10.37;4.00;;;4.20;99.90;;;;;;10033407;29;20297;-77
2022/01/05 12:30:36;;;;;;;21.57;4.53;;;4.00;99.90;;;;;;10031726;29;20314;-78
2022/01/05 12:36:02;;;;;;;8.00;3.10;;;3.90;99.90;;;;;;10053919;29;20269;-77
2022/01/05 12:41:37;;;;;;;13.33;3.73;;;3.90;99.90;;;;;;10060403;29;20313;-78
2022/01/05 12:46:59;;;;;;;15.90;4.97;;;3.80;99.90;;;;;;10035054;29;20204;-77
2022/01/05 12:52:37;;;;;;;13.87;4.60;;;3.90;99.90;;;;;;10036021;29;20212;-77
2022/01/05 12:57:59;;;;;;;24.97;7.63;;;3.80;99.90;;;;;;10042279;29;20795;-77
2022/01/05 13:03:33;;;;;;;34.07;10.87;;;3.90;99.90;;;;;;10042777;29;20216;-78
2022/01/05 13:08:58;;;;;;;20.87;6.60;;;3.80;99.90;;;;;;10042761;29;20204;-81
2022/01/05 13:14:25;;;;;;;11.63;3.43;;;3.80;99.90;;;;;;10045856;29;20244;-78
2022/01/05 13:19:52;;;;;;;14.93;6.40;;;3.70;99.90;;;;;;10066667;29;20606;-80
2022/01/05 13:25:22;;;;;;;16.57;3.43;;;3.60;99.90;;;;;;10114322;29;20203;-81
2022/01/05 13:30:46;;;;;;;13.77;5.00;;;3.60;99.90;;;;;;10082224;29;20606;-79
2022/01/05 13:36:09;;;;;;;31.93;11.77;;;3.60;99.90;;;;;;10065404;29;20382;-80
2022/01/05 13:41:31;;;;;;;22.40;7.43;;;3.60;99.90;;;;;;10078551;29;20295;-80
2022/01/05 13:46:54;;;;;;;17.20;7.20;;;3.70;99.90;;;;;;10078263;29;20225;-80
2022/01/05 13:52:15;;;;;;;16.20;6.97;;;3.60;99.90;;;;;;10078146;29;20231;-79
2022/01/05 13:57:37;;;;;;;18.23;6.00;;;3.60;99.90;;;;;;10081496;29;20242;-79
2022/01/05 14:03:01;;;;;;;17.83;5.43;;;3.60;99.90;;;;;;10082023;29;20285;-78
2022/01/05 14:08:34;;;;;;;18.90;5.70;;;3.50;99.90;;;;;;10077406;29;20202;-77
2022/01/05 14:14:06;;;;;;;14.50;4.50;;;3.50;99.90;;;;;;10064812;29;20222;-79
2022/01/05 14:19:34;;;;;;;19.60;3.63;;;3.50;99.90;;;;;;10051089;29;20240;-78
2022/01/05 14:24:57;;;;;;;20.33;6.60;;;3.50;99.90;;;;;;10064525;29;20697;-77
2022/01/05 14:30:31;;;;;;;19.17;6.00;;;3.40;99.90;;;;;;10063463;29;20250;-76
2022/01/05 14:35:52;;;;;;;19.63;8.50;;;3.30;99.90;;;;;;10060782;29;20209;-78
2022/01/05 14:41:15;;;;;;;14.93;4.73;;;3.40;99.90;;;;;;10101824;29;20229;-77
2022/01/05 14:46:38;;;;;;;11.27;4.70;;;3.40;99.90;;;;;;10096030;29;20259;-77
2022/01/05 14:52:02;;;;;;;20.53;7.37;;;3.40;99.90;;;;;;10075289;29;20472;-77
2022/01/05 14:57:24;;;;;;;15.13;6.70;;;3.30;99.90;;;;;;10074753;29;20318;-77
2022/01/05 15:02:46;;;;;;;15.33;6.17;;;3.30;99.90;;;;;;10076187;29;20512;-78
2022/01/05 15:08:08;;;;;;;13.03;5.50;;;3.30;99.90;;;;;;10076719;29;20211;-79
2022/01/05 15:13:32;;;;;;;12.80;6.20;;;3.30;99.90;;;;;;10086879;29;20771;-77
2022/01/05 15:18:55;;;;;;;22.07;8.73;;;3.30;99.90;;;;;;10076047;29;20278;-80
2022/01/05 15:24:17;;;;;;;13.17;6.33;;;3.20;99.90;;;;;;10076919;29;20261;-79
2022/01/05 15:29:39;;;;;;;14.77;4.50;;;3.20;99.90;;;;;;10071801;29;20371;-81
2022/01/05 15:35:02;;;;;;;19.40;8.43;;;3.30;99.90;;;;;;10091633;29;20220;-79
2022/01/05 15:40:24;;;;;;;30.60;10.80;;;3.30;99.90;;;;;;10099396;29;20244;-79
2022/01/05 15:45:46;;;;;;;24.97;10.57;;;3.10;99.90;;;;;;10113701;29;20202;-79
2022/01/05 15:51:08;;;;;;;24.73;11.43;;;3.20;99.90;;;;;;10072893;29;20246;-80
2022/01/05 15:57:04;;;;;;;23.93;11.03;;;3.20;99.90;;;;;;10073554;29;20439;-79
2022/01/05 16:02:14;;;;;;;19.77;7.93;;;3.10;99.90;;;;;;10074671;29;20286;-80
2022/01/05 16:07:36;;;;;;;14.93;6.60;;;3.20;99.90;;;;;;10078966;29;20198;-82
2022/01/05 16:12:59;;;;;;;16.73;7.33;;;3.20;99.90;;;;;;10091283;29;20214;-80
2022/01/05 16:18:20;;;;;;;13.93;5.97;;;3.20;99.90;;;;;;10077123;29;20219;-77
2022/01/05 16:23:43;;;;;;;15.67;7.20;;;3.10;99.90;;;;;;10078709;29;20203;-78
2022/01/05 16:29:05;;;;;;;12.50;7.20;;;3.10;99.90;;;;;;10028090;29;20239;-77
2022/01/05 16:34:27;;;;;;;15.10;6.20;;;3.10;99.90;;;;;;10057863;29;20221;-78
2022/01/05 16:39:49;;;;;;;20.93;6.77;;;3.10;99.90;;;;;;10032756;29;20559;-80
2022/01/05 16:45:12;;;;;;;20.73;7.10;;;3.00;99.90;;;;;;10046674;29;20204;-77
2022/01/05 16:50:35;;;;;;;12.93;5.63;;;3.10;99.90;;;;;;10047013;29;20211;-76
2022/01/05 16:55:57;;;;;;;12.03;5.87;;;3.00;99.90;;;;;;10061353;29;20205;-77
2022/01/05 17:01:18;;;;;;;22.23;6.87;;;3.00;99.90;;;;;;10086605;29;20287;-77
2022/01/05 17:06:42;;;;;;;18.00;5.87;;;3.00;99.90;;;;;;10072461;29;20203;-79
2022/01/05 17:12:06;;;;;;;17.10;6.87;;;3.10;99.90;;;;;;10097302;29;20251;-79
2022/01/05 17:17:28;;;;;;;18.90;5.97;;;3.00;99.90;;;;;;10085939;29;20201;-78
2022/01/05 17:22:52;;;;;;;21.90;6.43;;;3.10;99.90;;;;;;10084165;29;20198;-79
2022/01/05 17:28:14;;;;;;;43.00;18.00;;;3.10;99.90;;;;;;10084164;29;20250;-78
2022/01/05 17:33:36;;;;;;;28.60;12.27;;;3.10;99.90;;;;;;10071835;29;20225;-78
2022/01/05 17:38:58;;;;;;;28.20;8.43;;;3.00;99.90;;;;;;10083794;29;20449;-77
2022/01/05 17:44:24;;;;;;;24.13;9.33;;;3.00;99.90;;;;;;10084710;29;20359;-76
2022/01/05 17:49:46;;;;;;;25.73;8.43;;;3.00;99.90;;;;;;10083857;29;20199;-79
2022/01/05 17:55:08;;;;;;;19.40;6.40;;;3.00;99.90;;;;;;10070279;29;20210;-79
2022/01/05 18:00:31;;;;;;;17.53;6.83;;;3.00;99.90;;;;;;10083303;29;20532;-78
2022/01/05 18:05:55;;;;;;;22.90;6.93;;;3.00;99.90;;;;;;10083168;29;20203;-76
2022/01/05 18:11:17;;;;;;;28.50;6.27;;;2.90;99.90;;;;;;10095350;29;20243;-77
2022/01/05 18:16:49;;;;;;;19.03;5.77;;;3.00;99.90;;;;;;10082714;29;20251;-79
2022/01/05 18:22:11;;;;;;;15.87;4.83;;;3.10;99.90;;;;;;10082563;29;20297;-76
2022/01/05 18:27:34;;;;;;;20.30;6.00;;;3.00;99.90;;;;;;10082237;29;20278;-76
2022/01/05 18:32:56;;;;;;;14.73;5.77;;;3.00;99.90;;;;;;10083144;29;20203;-78
2022/01/05 18:38:17;;;;;;;14.10;5.83;;;3.00;99.90;;;;;;10082017;29;20219;-77
2022/01/05 18:43:40;;;;;;;11.20;4.67;;;3.00;99.90;;;;;;10081620;29;20206;-77
2022/01/05 18:49:03;;;;;;;18.13;6.40;;;2.90;99.90;;;;;;10081643;29;20243;-77
2022/01/05 18:54:25;;;;;;;17.57;6.20;;;3.00;99.90;;;;;;10081737;29;20205;-78
2022/01/05 18:59:47;;;;;;;21.57;7.13;;;3.00;99.90;;;;;;10081091;29;20241;-77
2022/01/05 19:05:10;;;;;;;17.23;7.10;;;3.00;99.90;;;;;;10081092;29;20228;-76
2022/01/05 19:10:32;;;;;;;27.30;9.53;;;3.00;99.90;;;;;;10093005;29;20237;-76
2022/01/05 19:16:08;;;;;;;21.20;9.47;;;3.00;99.90;;;;;;10080937;29;20211;-78
2022/01/05 19:21:31;;;;;;;24.20;7.70;;;3.00;99.90;;;;;;10081431;29;20230;-79
2022/01/05 19:26:53;;;;;;;22.80;8.43;;;3.10;99.90;;;;;;10080822;29;20304;-78
2022/01/05 19:32:18;;;;;;;23.67;8.77;;;3.00;99.90;;;;;;10079875;29;20494;-77
2022/01/05 19:37:40;;;;;;;20.00;6.67;;;3.10;99.90;;;;;;10080696;29;20369;-77
2022/01/05 19:43:04;;;;;;;18.80;7.30;;;3.10;99.90;;;;;;10080410;29;20210;-77
2022/01/05 19:48:26;;;;;;;20.37;6.73;;;3.10;99.90;;;;;;10079803;29;20275;-77
2022/01/05 19:53:51;;;;;;;16.87;6.53;;;3.00;99.90;;;;;;10080239;29;20203;-78
2022/01/05 19:59:13;;;;;;;21.87;7.63;;;3.10;99.90;;;;;;10079430;29;20273;-79
2022/01/05 20:04:39;;;;;;;20.60;6.87;;;3.10;99.90;;;;;;10079956;29;20244;-77
2022/01/05 20:10:01;;;;;;;20.07;7.10;;;3.10;99.90;;;;;;10087631;29;20214;-78
2022/01/05 20:15:23;;;;;;;21.53;7.97;;;3.00;99.90;;;;;;10078249;29;20221;-78
2022/01/05 20:20:48;;;;;;;22.20;9.73;;;3.10;99.90;;;;;;10079668;29;20249;-77
2022/01/05 20:26:10;;;;;;;15.33;7.27;;;3.10;99.90;;;;;;10079700;29;20306;-78
2022/01/05 20:31:35;;;;;;;29.60;10.03;;;3.10;99.90;;;;;;10078156;29;20242;-79
2022/01/05 20:36:57;;;;;;;22.97;8.70;;;3.00;99.90;;;;;;10078418;29;20209;-79
2022/01/05 20:42:20;;;;;;;20.77;7.80;;;3.00;99.90;;;;;;10079337;29;20222;-78
2022/01/05 20:47:41;;;;;;;20.67;11.87;;;3.00;99.90;;;;;;10079420;29;20202;-77
2022/01/05 20:53:06;;;;;;;18.50;7.37;;;3.10;99.90;;;;;;10078228;29;20203;-78
2022/01/05 20:58:29;;;;;;;17.93;7.47;;;3.10;99.90;;;;;;10078033;29;20238;-77
2022/01/05 21:03:51;;;;;;;15.00;6.20;;;3.00;99.90;;;;;;10077788;29;20219;-77
2022/01/05 21:09:13;;;;;;;21.70;10.00;;;3.00;99.90;;;;;;10081388;29;20199;-78
2022/01/05 21:14:35;;;;;;;21.80;9.53;;;3.10;99.90;;;;;;10097136;29;20536;-78
2022/01/05 21:19:57;;;;;;;25.60;10.67;;;3.00;99.90;;;;;;10084411;29;20246;-79
2022/01/05 21:25:22;;;;;;;76.60;27.47;;;3.00;99.90;;;;;;10085542;29;20199;-76
2022/01/05 21:30:45;;;;;;;49.73;18.40;;;3.10;99.90;;;;;;10084004;29;20242;-77
2022/01/05 21:36:09;;;;;;;30.03;11.70;;;3.10;99.90;;;;;;10085564;29;20218;-80
2022/01/05 21:41:30;;;;;;;18.50;7.17;;;3.10;99.90;;;;;;10085226;29;20639;-78
2022/01/05 21:46:53;;;;;;;30.10;11.30;;;3.10;99.90;;;;;;10083782;29;20198;-78
2022/01/05 21:52:16;;;;;;;24.20;10.40;;;3.10;99.90;;;;;;10084516;29;20200;-77
2022/01/05 21:57:40;;;;;;;22.67;9.80;;;3.10;99.90;;;;;;10084859;29;20203;-78
2022/01/05 22:03:02;;;;;;;31.37;12.03;;;3.10;99.90;;;;;;10082274;29;20239;-79
2022/01/05 22:08:24;;;;;;;25.93;9.57;;;3.20;99.90;;;;;;10083815;29;20203;-77
2022/01/05 22:13:46;;;;;;;15.30;6.70;;;3.10;99.90;;;;;;10083003;29;20230;-77
2022/01/05 22:19:08;;;;;;;15.07;7.17;;;3.10;99.90;;;;;;10083700;29;20289;-77
2022/01/05 22:24:30;;;;;;;12.80;6.67;;;3.10;99.90;;;;;;10081817;29;20216;-75
2022/01/05 22:29:52;;;;;;;14.83;6.43;;;3.10;99.90;;;;;;10083083;29;20231;-77
2022/01/05 22:35:15;;;;;;;13.50;6.83;;;3.10;99.90;;;;;;10081830;29;20199;-78
2022/01/05 22:40:37;;;;;;;15.27;7.97;;;3.10;99.90;;;;;;10082025;29;20318;-78
2022/01/05 22:45:59;;;;;;;13.73;6.43;;;3.10;99.90;;;;;;10081928;29;20198;-77
2022/01/05 22:51:21;;;;;;;14.67;7.40;;;3.10;99.90;;;;;;10081590;29;20207;-77
2022/01/05 22:56:46;;;;;;;9.93;6.33;;;3.10;99.90;;;;;;10081808;29;20211;-77
2022/01/05 23:02:08;;;;;;;11.87;6.37;;;3.10;99.90;;;;;;10082033;29;20294;-79
2022/01/05 23:07:40;;;;;;;19.40;8.43;;;3.10;99.90;;;;;;10042918;29;20512;-78
2022/01/05 23:13:05;;;;;;;12.57;6.60;;;3.10;99.90;;;;;;10092003;29;20282;-79
2022/01/05 23:18:27;;;;;;;8.33;4.90;;;3.00;99.90;;;;;;10080650;29;20207;-78
2022/01/05 23:23:50;;;;;;;9.20;4.30;;;3.00;99.90;;;;;;10081633;29;20434;-77
2022/01/05 23:29:12;;;;;;;7.27;4.13;;;3.00;99.90;;;;;;10092997;29;20545;-79
2022/01/05 23:34:34;;;;;;;6.63;3.73;;;3.10;99.90;;;;;;10080700;29;20244;-77
2022/01/05 23:39:56;;;;;;;9.70;4.43;;;3.00;99.90;;;;;;10080789;29;20235;-77
2022/01/05 23:45:18;;;;;;;30.67;15.60;;;3.10;99.90;;;;;;10079915;29;20418;-77
2022/01/05 23:50:43;;;;;;;14.30;7.03;;;3.10;99.90;;;;;;10080747;29;20205;-77
2022/01/05 23:56:06;;;;;;;8.60;4.57;;;3.00;99.90;;;;;;10080351;29;20416;-77
